Ship Status Report: callsign OS8154

sailwx.info

Track history (hours):
 
Tides and Currents Weather Stations Pressure Air Temp Water Temp Dewpoint Dewpoint Depression Visibility Wind Speed Wind Dir Waves Ship Positions

Callsign OS8154 (name unknown)

Last reported at 2014-Sep-13 19:00 UTC. Time now 2014-Dec-22 12:46 UTC.
Position N 68°42' W 052°54'.
Warning: this ship's position is months out of date.

Barometer 993.3 mb
Air temperature 3.3 ° C

Date/timePositionNaut miles runAvg speedWind from/ knotsBaromVisibWave heightAir tempDewpointWater temp
2014-Sep-13 19:00N 68°42' W 052°54'0 0.0 993.3 3.3
2014-Sep-13 18:00N 68°42' W 052°54'0 0.0 992.8 3.3
2014-Sep-13 17:00N 68°42' W 052°54'0 0.0 992.3 3.5
2014-Sep-13 16:00N 68°42' W 052°54'0 0.0 991.8 3.5
2014-Sep-13 15:00N 68°42' W 052°54'0 0.0 991.6 3.5
2014-Sep-13 14:00N 68°42' W 052°54'0 0.0 991.7 3.5
2014-Sep-13 13:00N 68°42' W 052°54'0 0.0 991.4 3.8
2014-Sep-13 12:00N 68°42' W 052°54'0 0.0 991.4 3.8
2014-Sep-13 11:00N 68°42' W 052°54'0 0.0 991.3 4.5
2014-Sep-13 10:00N 68°42' W 052°54'0 0.0 992.2 3.8
2014-Sep-13 09:00N 68°42' W 052°54'0 0.0 993.5 3.0
2014-Sep-13 08:00N 68°42' W 052°54'0 0.0 995.3 3.0
2014-Sep-13 07:00N 68°42' W 052°54'0 0.0 996.7 3.0
2014-Sep-13 06:00N 68°42' W 052°54'0 0.0 998.2 3.0
2014-Sep-13 05:00N 68°42' W 052°54'0 0.0 999.6 3.0
2014-Sep-13 04:00N 68°42' W 052°54'0 0.0 1000.9 2.5
2014-Sep-13 02:00N 68°42' W 052°54'0 0.0 1002.6 2.5
2014-Sep-13 01:00N 68°42' W 052°54'0 0.0 1003.5 2.5
2014-Sep-13 00:00N 68°42' W 052°54'0 0.0 1004.0 2.5
2014-Sep-12 23:00N 68°42' W 052°54'0 0.0 1004.2 2.5
2014-Sep-12 22:00N 68°42' W 052°54'0 0.0 1004.0 2.8
2014-Sep-12 21:00N 68°42' W 052°54'0 0.0 1004.2 3.3
2014-Sep-12 20:00N 68°42' W 052°54'0 0.0 1004.1 3.5
2014-Sep-12 18:00N 68°42' W 052°54'0 0.0 1003.6 2.3
2014-Sep-12 15:00N 68°42' W 052°54'0 0.0 1003.6 4.3
2014-Sep-12 12:00N 68°42' W 052°54'0 0.0 1002.4 3.5
2014-Sep-12 10:00N 68°42' W 052°54'0 0.0 1001.7 2.3
2014-Sep-12 09:00N 68°42' W 052°54'0 0.0 1001.2 2.8
2014-Sep-12 04:00N 68°42' W 052°54'0 0.0 999.2 3.0
2014-Sep-12 03:00N 68°42' W 052°54'0 0.0 998.9 3.0
2014-Sep-12 02:00N 68°42' W 052°54'0 0.0 998.6 3.0
2014-Sep-12 01:00N 68°42' W 052°54'0 0.0 998.5 2.3
2014-Sep-11 22:00N 68°42' W 052°54'0 0.0 997.7 3.0
2014-Sep-11 19:00N 68°42' W 052°54'0 0.0 996.8 3.0
2014-Sep-11 18:00N 68°42' W 052°54'0 0.0 996.4 3.8
2014-Sep-11 17:00N 68°42' W 052°54'0 0.0 996.3 3.5
2014-Sep-11 16:00N 68°42' W 052°54'0 0.0 995.8 5.0
2014-Sep-11 15:00N 68°42' W 052°54'0 0.0 995.7 3.5
2014-Sep-11 14:00N 68°42' W 052°54'0 0.0 995.3 3.8
2014-Sep-11 13:00N 68°42' W 052°54'0 0.0 994.9 3.8
2014-Sep-11 11:00N 68°42' W 052°54'0 0.0 994.3 3.8
2014-Sep-11 06:00N 68°42' W 052°54'0 0.0 994.7 3.8
2014-Sep-11 02:00N 68°42' W 052°54'0 0.0 995.8 4.0
2014-Sep-11 00:00N 68°42' W 052°54'0 0.0 995.7 4.5
2014-Sep-10 23:00N 68°42' W 052°54'0 0.0 995.3 5.0
2014-Sep-10 22:00N 68°42' W 052°54'0 0.0 995.1 5.3
2014-Sep-10 21:00N 68°42' W 052°54'0 0.0 995.0 7.0
2014-Sep-10 20:00N 68°42' W 052°54'0 0.0 995.2 7.0
2014-Sep-10 19:00N 68°42' W 052°54'0 0.0 995.2 6.8
2014-Sep-10 18:00N 68°42' W 052°54'0 0.0 995.3 6.3
2014-Sep-10 16:00N 68°42' W 052°54'0 0.0 995.8 5.8
2014-Sep-10 13:00N 68°42' W 052°54'0 0.0 998.3 5.0
2014-Sep-10 10:00N 68°42' W 052°54'0 0.0 1001.0 4.0
2014-Sep-10 09:00N 68°42' W 052°54'0 0.0 1001.9 3.8
2014-Sep-10 08:00N 68°42' W 052°54'0 0.0 1002.7 3.8
2014-Sep-10 06:00N 68°42' W 052°54'0 0.0 1004.0 3.8
2014-Sep-10 01:00N 68°42' W 052°54'0 0.0 1006.0 4.0
2014-Sep-09 23:00N 68°42' W 052°54'0 0.0 1006.1 4.3
2014-Sep-09 21:00N 68°42' W 052°54'0 0.0 1006.4 4.8
2014-Sep-09 20:00N 68°42' W 052°54'0 0.0 1006.6 4.5
2014-Sep-09 19:00N 68°42' W 052°54'0 0.0 1006.3 5.0
2014-Sep-09 18:00N 68°42' W 052°54'0 0.0 1006.2 5.0
2014-Sep-09 17:00N 68°42' W 052°54'0 0.0 1005.8 5.3
2014-Sep-09 16:00N 68°42' W 052°54'0 0.0 1005.4 5.3
2014-Sep-09 15:00N 68°42' W 052°54'0 0.0 1005.2 5.5
2014-Sep-09 13:00N 68°42' W 052°54'0 0.0 1004.8 4.5
2014-Sep-09 12:00N 68°42' W 052°54'0 0.0 1004.6 4.5
2014-Sep-09 11:00N 68°42' W 052°54'0 0.0 1004.4 4.3
2014-Sep-09 10:00N 68°42' W 052°54'0 0.0 1004.2 4.3
2014-Sep-09 09:00N 68°42' W 052°54'0 0.0 1004.0 4.3
2014-Sep-09 08:00N 68°42' W 052°54'0 0.0 1003.5 4.5
2014-Sep-09 06:00N 68°42' W 052°54'0 0.0 1002.6 4.8
2014-Sep-09 04:00N 68°42' W 052°54'0 0.0 1001.7 4.8
2014-Sep-09 03:00N 68°42' W 052°54'0 0.0 1001.2 4.8
2014-Sep-09 00:00N 68°42' W 052°54'0 0.0 1000.0 5.0
2014-Sep-08 22:00N 68°42' W 052°54'0 0.0 999.2 4.8
2014-Sep-08 20:00N 68°42' W 052°54'0 0.0 998.9 4.3
2014-Sep-08 19:00N 68°42' W 052°54'0 0.0 998.7 4.3
2014-Sep-08 18:00N 68°42' W 052°54'0 0.0 998.5 4.8
2014-Sep-08 17:00N 68°42' W 052°54'0 0.0 998.4 5.3
2014-Sep-08 15:00N 68°42' W 052°54'0 0.0 998.3 5.0
2014-Sep-08 14:00N 68°42' W 052°54'0 0.0 998.3 5.5
2014-Sep-08 13:00N 68°42' W 052°54'0 0.0 998.3 7.0
2014-Sep-08 12:00N 68°42' W 052°54'0 0.0 998.5 7.0
2014-Sep-08 10:00N 68°42' W 052°54'0 0.0 998.6 4.8
2014-Sep-08 07:00N 68°42' W 052°54'0 0.0 999.2 4.0
2014-Sep-08 06:00N 68°42' W 052°54'0 0.0 999.7 3.8
2014-Sep-08 05:00N 68°42' W 052°54'0 0.0 1000.4 3.3
2014-Sep-08 03:00N 68°42' W 052°54'0 0.0 1001.2 3.0
2014-Sep-08 02:00N 68°42' W 052°54'0 0.0 1001.8 3.3
2014-Sep-08 01:00N 68°42' W 052°54'0 0.0 1002.5 3.5
2014-Sep-08 00:00N 68°42' W 052°54'0 0.0 1003.0 3.8
2014-Sep-07 19:00N 68°42' W 052°54'0 0.0 1004.6 5.3
2014-Sep-07 18:00N 68°42' W 052°54'0 0.0 1004.7 5.0
2014-Sep-07 17:00N 68°42' W 052°54'0 0.0 1004.9 5.3
2014-Sep-07 16:00N 68°42' W 052°54'4 4.4 1005.2 5.0
2014-Sep-07 15:00N 68°42' W 053°06'1110.6 1005.4 5.8
2014-Sep-07 14:00N 68°36' W 053°30'9 8.8 1005.7 5.3
2014-Sep-07 13:00N 68°36' W 053°54'7 6.6 1005.8 3.5
2014-Sep-07 12:00N 68°36' W 054°12'19 9.3 1006.1 3.0
2014-Sep-07 10:00N 68°30' W 055°00'20 9.9 1005.9 3.0
2014-Sep-07 08:00N 68°30' W 055°54'25 8.3 1005.7 3.3
2014-Sep-07 05:00N 68°24' W 057°00'1110.7 1006.1 4.3
2014-Sep-07 04:00N 68°18' W 057°24'9 8.9 1006.5 3.3
2014-Sep-07 03:00N 68°18' W 057°48'9 8.9 1006.7 3.3
2014-Sep-07 02:00N 68°18' W 058°12'19 9.4 1006.9 2.8
2014-Sep-07 00:00N 68°12' W 059°00'9 8.9 1007.5 2.0
2014-Sep-06 23:00N 68°12' W 059°24'1110.8 1007.5 2.0
2014-Sep-06 22:00N 68°06' W 059°48'9 9.0 1007.4 2.5
2014-Sep-06 21:00N 68°06' W 060°12'17 8.4 1007.1 2.8
2014-Sep-06 19:00N 68°00' W 060°54'18 9.0 1006.9 3.8
2014-Sep-06 17:00N 68°00' W 061°42'1110.8 1006.6 4.3
2014-Sep-06 16:00N 67°54' W 062°06'7 6.8 1006.8 3.0
2014-Sep-06 15:00N 67°54' W 062°24'1110.9 1006.9 3.3
2014-Sep-06 14:00N 67°48' W 062°48'9 9.1 1006.9 4.0
2014-Sep-06 13:00N 67°48' W 063°12'1110.9 1007.0 3.8
2014-Sep-06 12:00N 67°42' W 063°36'7 6.8 1007.2 3.8
2014-Sep-06 11:00N 67°42' W 063°54'6 6.4 1007.1 3.8
2014-Sep-06 10:00N 67°36' W 064°00'0 0.0 1006.9 1.3
2014-Sep-06 09:00N 67°36' W 064°00'0 0.0 1006.7 -1.3
2014-Sep-06 08:00N 67°36' W 064°00'0 0.0 1006.5 -0.3
2014-Sep-06 07:00N 67°36' W 064°00'0 0.0 1006.5 -0.0
2014-Sep-06 03:00N 67°36' W 064°00'0 0.0 1007.7 0.3
2014-Sep-06 02:00N 67°36' W 064°00'0 0.0 1008.0 1.3
2014-Sep-06 00:00N 67°36' W 064°00'0 0.0 1008.5 1.3
2014-Sep-05 23:00N 67°36' W 064°00'0 0.0 1008.6 3.0
2014-Sep-05 22:00N 67°36' W 064°00'0 0.0 1008.6 3.5
2014-Sep-05 21:00N 67°36' W 064°00'0 0.0 1008.7 3.8
2014-Sep-05 20:00N 67°36' W 064°00'0 0.0 1008.6 4.0
2014-Sep-05 19:00N 67°36' W 064°00'0 0.0 1008.6 4.5
2014-Sep-05 18:00N 67°36' W 064°00'0 0.0 1008.6 4.0
2014-Sep-05 17:00N 67°36' W 064°00'0 0.0 1008.9 4.0
2014-Sep-05 16:00N 67°36' W 064°00'0 0.0 1008.9 3.8
2014-Sep-05 13:00N 67°36' W 064°00'0 0.0 1008.4 3.8
2014-Sep-05 12:00N 67°36' W 064°00'0 0.0 1008.3 3.3
2014-Sep-05 11:00N 67°36' W 064°00'0 0.0 1008.0 2.8
2014-Sep-05 10:00N 67°36' W 064°00'0 0.0 1008.0 2.5
2014-Sep-05 09:00N 67°36' W 064°00'0 0.0 1007.4 2.5
2014-Sep-05 07:00N 67°36' W 064°00'0 0.0 1006.4 2.5
2014-Sep-05 05:00N 67°36' W 064°00'0 0.0 1005.8 2.8
2014-Sep-05 02:00N 67°36' W 064°00'0 0.0 1004.8 3.3
2014-Sep-05 01:00N 67°36' W 064°00'0 0.0 1005.1 3.5
2014-Sep-04 22:00N 67°36' W 064°00'0 0.0 1004.1 3.0
2014-Sep-04 21:00N 67°36' W 064°00'0 0.0 1003.9 3.3
2014-Sep-04 20:00N 67°36' W 064°00'0 0.0 1003.7 3.3
2014-Sep-04 19:00N 67°36' W 064°00'0 0.0 1004.0 3.0
2014-Sep-04 18:00N 67°36' W 064°00'0 0.0 1004.1 2.8
2014-Sep-04 17:00N 67°36' W 064°00'0 0.0 1004.4 3.3
2014-Sep-04 16:00N 67°36' W 064°00'8 7.5 1004.8 2.8
2014-Sep-04 15:00N 67°42' W 064°12'9 9.1 1005.8 3.5
2014-Sep-04 14:00N 67°48' W 064°30'13 6.4 1006.9 3.5
2014-Sep-04 12:00N 67°54' W 065°00'0 0.0 1008.2 3.3
2014-Sep-04 11:00N 67°54' W 065°00'0 0.0 1008.6 3.0
2014-Sep-04 10:00N 67°54' W 065°00'0 0.0 1008.9 2.3
2014-Sep-04 09:00N 67°54' W 065°00'0 0.0 1009.1 2.3
2014-Sep-04 08:00N 67°54' W 065°00'0 0.0 1009.1 2.5
2014-Sep-04 06:00N 67°54' W 065°00'0 0.0 1009.3 2.5
2014-Sep-04 05:00N 67°54' W 065°00'24 4.8 1009.3 2.8
2014-Sep-04 00:00N 68°18' W 065°06'7 7.5 1010.3 3.5
2014-Sep-03 23:00N 68°24' W 065°18'7 7.4 1010.3 3.5
2014-Sep-03 22:00N 68°30' W 065°30'6 6.4 1010.3 4.5
2014-Sep-03 21:00N 68°36' W 065°36'2010.0 1010.1 4.5
2014-Sep-03 19:00N 68°54' W 066°00'   1009.6 6.0
Track history (hours):
 
Tides and Currents Weather Stations Pressure Air Temp Water Temp Dewpoint Dewpoint Depression Visibility Wind Speed Wind Dir Waves Ship Positions

Callsign OS8154 (name unknown)

Last reported at 2014-Sep-13 19:00 UTC. Time now 2014-Dec-22 12:46 UTC.
Position N 68°42' W 052°54'.
Warning: this ship's position is months out of date.

Barometer 993.3 mb
Air temperature 3.3 ° C

Date/timePositionNaut miles runAvg speedWind from/ knotsBaromVisibWave heightAir tempDewpointWater temp
2014-Sep-13 19:00N 68°42' W 052°54'0 0.0 993.3 3.3
2014-Sep-13 18:00N 68°42' W 052°54'0 0.0 992.8 3.3
2014-Sep-13 17:00N 68°42' W 052°54'0 0.0 992.3 3.5
2014-Sep-13 16:00N 68°42' W 052°54'0 0.0 991.8 3.5
2014-Sep-13 15:00N 68°42' W 052°54'0 0.0 991.6 3.5
2014-Sep-13 14:00N 68°42' W 052°54'0 0.0 991.7 3.5
2014-Sep-13 13:00N 68°42' W 052°54'0 0.0 991.4 3.8
2014-Sep-13 12:00N 68°42' W 052°54'0 0.0 991.4 3.8
2014-Sep-13 11:00N 68°42' W 052°54'0 0.0 991.3 4.5
2014-Sep-13 10:00N 68°42' W 052°54'0 0.0 992.2 3.8
2014-Sep-13 09:00N 68°42' W 052°54'0 0.0 993.5 3.0
2014-Sep-13 08:00N 68°42' W 052°54'0 0.0 995.3 3.0
2014-Sep-13 07:00N 68°42' W 052°54'0 0.0 996.7 3.0
2014-Sep-13 06:00N 68°42' W 052°54'0 0.0 998.2 3.0
2014-Sep-13 05:00N 68°42' W 052°54'0 0.0 999.6 3.0
2014-Sep-13 04:00N 68°42' W 052°54'0 0.0 1000.9 2.5
2014-Sep-13 02:00N 68°42' W 052°54'0 0.0 1002.6 2.5
2014-Sep-13 01:00N 68°42' W 052°54'0 0.0 1003.5 2.5
2014-Sep-13 00:00N 68°42' W 052°54'0 0.0 1004.0 2.5
2014-Sep-12 23:00N 68°42' W 052°54'0 0.0 1004.2 2.5
2014-Sep-12 22:00N 68°42' W 052°54'0 0.0 1004.0 2.8
2014-Sep-12 21:00N 68°42' W 052°54'0 0.0 1004.2 3.3
2014-Sep-12 20:00N 68°42' W 052°54'0 0.0 1004.1 3.5
2014-Sep-12 18:00N 68°42' W 052°54'0 0.0 1003.6 2.3
2014-Sep-12 15:00N 68°42' W 052°54'0 0.0 1003.6 4.3
2014-Sep-12 12:00N 68°42' W 052°54'0 0.0 1002.4 3.5
2014-Sep-12 10:00N 68°42' W 052°54'0 0.0 1001.7 2.3
2014-Sep-12 09:00N 68°42' W 052°54'0 0.0 1001.2 2.8
2014-Sep-12 04:00N 68°42' W 052°54'0 0.0 999.2 3.0
2014-Sep-12 03:00N 68°42' W 052°54'0 0.0 998.9 3.0
2014-Sep-12 02:00N 68°42' W 052°54'0 0.0 998.6 3.0
2014-Sep-12 01:00N 68°42' W 052°54'0 0.0 998.5 2.3
2014-Sep-11 22:00N 68°42' W 052°54'0 0.0 997.7 3.0
2014-Sep-11 19:00N 68°42' W 052°54'0 0.0 996.8 3.0
2014-Sep-11 18:00N 68°42' W 052°54'0 0.0 996.4 3.8
2014-Sep-11 17:00N 68°42' W 052°54'0 0.0 996.3 3.5
2014-Sep-11 16:00N 68°42' W 052°54'0 0.0 995.8 5.0
2014-Sep-11 15:00N 68°42' W 052°54'0 0.0 995.7 3.5
2014-Sep-11 14:00N 68°42' W 052°54'0 0.0 995.3 3.8
2014-Sep-11 13:00N 68°42' W 052°54'0 0.0 994.9 3.8
2014-Sep-11 11:00N 68°42' W 052°54'0 0.0 994.3 3.8
2014-Sep-11 06:00N 68°42' W 052°54'0 0.0 994.7 3.8
2014-Sep-11 02:00N 68°42' W 052°54'0 0.0 995.8 4.0
2014-Sep-11 00:00N 68°42' W 052°54'0 0.0 995.7 4.5
2014-Sep-10 23:00N 68°42' W 052°54'0 0.0 995.3 5.0
2014-Sep-10 22:00N 68°42' W 052°54'0 0.0 995.1 5.3
2014-Sep-10 21:00N 68°42' W 052°54'0 0.0 995.0 7.0
2014-Sep-10 20:00N 68°42' W 052°54'0 0.0 995.2 7.0
2014-Sep-10 19:00N 68°42' W 052°54'0 0.0 995.2 6.8
2014-Sep-10 18:00N 68°42' W 052°54'0 0.0 995.3 6.3
2014-Sep-10 16:00N 68°42' W 052°54'0 0.0 995.8 5.8
2014-Sep-10 13:00N 68°42' W 052°54'0 0.0 998.3 5.0
2014-Sep-10 10:00N 68°42' W 052°54'0 0.0 1001.0 4.0
2014-Sep-10 09:00N 68°42' W 052°54'0 0.0 1001.9 3.8
2014-Sep-10 08:00N 68°42' W 052°54'0 0.0 1002.7 3.8
2014-Sep-10 06:00N 68°42' W 052°54'0 0.0 1004.0 3.8
2014-Sep-10 01:00N 68°42' W 052°54'0 0.0 1006.0 4.0
2014-Sep-09 23:00N 68°42' W 052°54'0 0.0 1006.1 4.3
2014-Sep-09 21:00N 68°42' W 052°54'0 0.0 1006.4 4.8
2014-Sep-09 20:00N 68°42' W 052°54'0 0.0 1006.6 4.5
2014-Sep-09 19:00N 68°42' W 052°54'0 0.0 1006.3 5.0
2014-Sep-09 18:00N 68°42' W 052°54'0 0.0 1006.2 5.0
2014-Sep-09 17:00N 68°42' W 052°54'0 0.0 1005.8 5.3
2014-Sep-09 16:00N 68°42' W 052°54'0 0.0 1005.4 5.3
2014-Sep-09 15:00N 68°42' W 052°54'0 0.0 1005.2 5.5
2014-Sep-09 13:00N 68°42' W 052°54'0 0.0 1004.8 4.5
2014-Sep-09 12:00N 68°42' W 052°54'0 0.0 1004.6 4.5
2014-Sep-09 11:00N 68°42' W 052°54'0 0.0 1004.4 4.3
2014-Sep-09 10:00N 68°42' W 052°54'0 0.0 1004.2 4.3
2014-Sep-09 09:00N 68°42' W 052°54'0 0.0 1004.0 4.3
2014-Sep-09 08:00N 68°42' W 052°54'0 0.0 1003.5 4.5
2014-Sep-09 06:00N 68°42' W 052°54'0 0.0 1002.6 4.8
2014-Sep-09 04:00N 68°42' W 052°54'0 0.0 1001.7 4.8
2014-Sep-09 03:00N 68°42' W 052°54'0 0.0 1001.2 4.8
2014-Sep-09 00:00N 68°42' W 052°54'0 0.0 1000.0 5.0
2014-Sep-08 22:00N 68°42' W 052°54'0 0.0 999.2 4.8
2014-Sep-08 20:00N 68°42' W 052°54'0 0.0 998.9 4.3
2014-Sep-08 19:00N 68°42' W 052°54'0 0.0 998.7 4.3
2014-Sep-08 18:00N 68°42' W 052°54'0 0.0 998.5 4.8
2014-Sep-08 17:00N 68°42' W 052°54'0 0.0 998.4 5.3
2014-Sep-08 15:00N 68°42' W 052°54'0 0.0 998.3 5.0
2014-Sep-08 14:00N 68°42' W 052°54'0 0.0 998.3 5.5
2014-Sep-08 13:00N 68°42' W 052°54'0 0.0 998.3 7.0
2014-Sep-08 12:00N 68°42' W 052°54'0 0.0 998.5 7.0
2014-Sep-08 10:00N 68°42' W 052°54'0 0.0 998.6 4.8
2014-Sep-08 07:00N 68°42' W 052°54'0 0.0 999.2 4.0
2014-Sep-08 06:00N 68°42' W 052°54'0 0.0 999.7 3.8
2014-Sep-08 05:00N 68°42' W 052°54'0 0.0 1000.4 3.3
2014-Sep-08 03:00N 68°42' W 052°54'0 0.0 1001.2 3.0
2014-Sep-08 02:00N 68°42' W 052°54'0 0.0 1001.8 3.3
2014-Sep-08 01:00N 68°42' W 052°54'0 0.0 1002.5 3.5
2014-Sep-08 00:00N 68°42' W 052°54'0 0.0 1003.0 3.8
2014-Sep-07 19:00N 68°42' W 052°54'0 0.0 1004.6 5.3
2014-Sep-07 18:00N 68°42' W 052°54'0 0.0 1004.7 5.0
2014-Sep-07 17:00N 68°42' W 052°54'0 0.0 1004.9 5.3
2014-Sep-07 16:00N 68°42' W 052°54'4 4.4 1005.2 5.0
2014-Sep-07 15:00N 68°42' W 053°06'1110.6 1005.4 5.8
2014-Sep-07 14:00N 68°36' W 053°30'9 8.8 1005.7 5.3
2014-Sep-07 13:00N 68°36' W 053°54'7 6.6 1005.8 3.5
2014-Sep-07 12:00N 68°36' W 054°12'19 9.3 1006.1 3.0
2014-Sep-07 10:00N 68°30' W 055°00'20 9.9 1005.9 3.0
2014-Sep-07 08:00N 68°30' W 055°54'25 8.3 1005.7 3.3
2014-Sep-07 05:00N 68°24' W 057°00'1110.7 1006.1 4.3
2014-Sep-07 04:00N 68°18' W 057°24'9 8.9 1006.5 3.3
2014-Sep-07 03:00N 68°18' W 057°48'9 8.9 1006.7 3.3
2014-Sep-07 02:00N 68°18' W 058°12'19 9.4 1006.9 2.8
2014-Sep-07 00:00N 68°12' W 059°00'9 8.9 1007.5 2.0
2014-Sep-06 23:00N 68°12' W 059°24'1110.8 1007.5 2.0
2014-Sep-06 22:00N 68°06' W 059°48'9 9.0 1007.4 2.5
2014-Sep-06 21:00N 68°06' W 060°12'17 8.4 1007.1 2.8
2014-Sep-06 19:00N 68°00' W 060°54'18 9.0 1006.9 3.8
2014-Sep-06 17:00N 68°00' W 061°42'1110.8 1006.6 4.3
2014-Sep-06 16:00N 67°54' W 062°06'7 6.8 1006.8 3.0
2014-Sep-06 15:00N 67°54' W 062°24'1110.9 1006.9 3.3
2014-Sep-06 14:00N 67°48' W 062°48'9 9.1 1006.9 4.0
2014-Sep-06 13:00N 67°48' W 063°12'1110.9 1007.0 3.8
2014-Sep-06 12:00N 67°42' W 063°36'7 6.8 1007.2 3.8
2014-Sep-06 11:00N 67°42' W 063°54'6 6.4 1007.1 3.8
2014-Sep-06 10:00N 67°36' W 064°00'0 0.0 1006.9 1.3
2014-Sep-06 09:00N 67°36' W 064°00'0 0.0 1006.7 -1.3
2014-Sep-06 08:00N 67°36' W 064°00'0 0.0 1006.5 -0.3
2014-Sep-06 07:00N 67°36' W 064°00'0 0.0 1006.5 -0.0
2014-Sep-06 03:00N 67°36' W 064°00'0 0.0 1007.7 0.3
2014-Sep-06 02:00N 67°36' W 064°00'0 0.0 1008.0 1.3
2014-Sep-06 00:00N 67°36' W 064°00'0 0.0 1008.5 1.3
2014-Sep-05 23:00N 67°36' W 064°00'0 0.0 1008.6 3.0
2014-Sep-05 22:00N 67°36' W 064°00'0 0.0 1008.6 3.5
2014-Sep-05 21:00N 67°36' W 064°00'0 0.0 1008.7 3.8
2014-Sep-05 20:00N 67°36' W 064°00'0 0.0 1008.6 4.0
2014-Sep-05 19:00N 67°36' W 064°00'0 0.0 1008.6 4.5
2014-Sep-05 18:00N 67°36' W 064°00'0 0.0 1008.6 4.0
2014-Sep-05 17:00N 67°36' W 064°00'0 0.0 1008.9 4.0
2014-Sep-05 16:00N 67°36' W 064°00'0 0.0 1008.9 3.8
2014-Sep-05 13:00N 67°36' W 064°00'0 0.0 1008.4 3.8
2014-Sep-05 12:00N 67°36' W 064°00'0 0.0 1008.3 3.3
2014-Sep-05 11:00N 67°36' W 064°00'0 0.0 1008.0 2.8
2014-Sep-05 10:00N 67°36' W 064°00'0 0.0 1008.0 2.5
2014-Sep-05 09:00N 67°36' W 064°00'0 0.0 1007.4 2.5
2014-Sep-05 07:00N 67°36' W 064°00'0 0.0 1006.4 2.5
2014-Sep-05 05:00N 67°36' W 064°00'0 0.0 1005.8 2.8
2014-Sep-05 02:00N 67°36' W 064°00'0 0.0 1004.8 3.3
2014-Sep-05 01:00N 67°36' W 064°00'0 0.0 1005.1 3.5
2014-Sep-04 22:00N 67°36' W 064°00'0 0.0 1004.1 3.0
2014-Sep-04 21:00N 67°36' W 064°00'0 0.0 1003.9 3.3
2014-Sep-04 20:00N 67°36' W 064°00'0 0.0 1003.7 3.3
2014-Sep-04 19:00N 67°36' W 064°00'0 0.0 1004.0 3.0
2014-Sep-04 18:00N 67°36' W 064°00'0 0.0 1004.1 2.8
2014-Sep-04 17:00N 67°36' W 064°00'0 0.0 1004.4 3.3
2014-Sep-04 16:00N 67°36' W 064°00'8 7.5 1004.8 2.8
2014-Sep-04 15:00N 67°42' W 064°12'9 9.1 1005.8 3.5
2014-Sep-04 14:00N 67°48' W 064°30'13 6.4 1006.9 3.5
2014-Sep-04 12:00N 67°54' W 065°00'0 0.0 1008.2 3.3
2014-Sep-04 11:00N 67°54' W 065°00'0 0.0 1008.6 3.0
2014-Sep-04 10:00N 67°54' W 065°00'0 0.0 1008.9 2.3
2014-Sep-04 09:00N 67°54' W 065°00'0 0.0 1009.1 2.3
2014-Sep-04 08:00N 67°54' W 065°00'0 0.0 1009.1 2.5
2014-Sep-04 06:00N 67°54' W 065°00'0 0.0 1009.3 2.5
2014-Sep-04 05:00N 67°54' W 065°00'24 4.8 1009.3 2.8
2014-Sep-04 00:00N 68°18' W 065°06'7 7.5 1010.3 3.5
2014-Sep-03 23:00N 68°24' W 065°18'7 7.4 1010.3 3.5
2014-Sep-03 22:00N 68°30' W 065°30'6 6.4 1010.3 4.5
2014-Sep-03 21:00N 68°36' W 065°36'2010.0 1010.1 4.5
2014-Sep-03 19:00N 68°54' W 066°00'   1009.6 6.0

Dump ship's entire track history